EPKK/KRK METAR and TAF weather

Enter ICAO airport designator
Station Type Date Time Source
EPKK METAR 2022/01/26 15:00 UTC NOAA

EPKK 261500Z 23006KT 4000 -RA BR BKN005 01/01 Q1024


Station Type Date Time Source
EPKK Decoded METAR 2022/01/26 15:00 UTC NOAA

Krakow, Poland (EPKK) 50-05N 019-48E 237M
Jan 26, 2022 - 10:00 AM EST / 2022.01.26 1500 UTC
Wind: from the SW (230 degrees) at 7 MPH (6 KT):0
Visibility: 2 mile(s):0
Sky conditions: mostly cloudy
Weather: light rain; mist
Temperature: 33 F (1 C)
Windchill: 26 F (-3 C):1
Dew Point: 33 F (1 C)
Relative Humidity: 100%
Pressure (altimeter): 30.24 in. Hg (1024 hPa)
ob: EPKK 261500Z 23006KT 4000 -RA BR BKN005 01/01 Q1024
cycle: 15

Station Type Date Time Source
EPKK TAF 2022/01/26 15:33 UTC NOAA

TAF TAF EPKK 261430Z 2615/2715 23006KT 4000 BR OVC006
TEMPO 2615/2618 6000 -RA -DZ BKN004
TEMPO 2618/2621 2500 -RASN -DZ BR
TEMPO 2621/2707 2000 -SN BR BKN012
BECMG 2707/2710 9999 BKN022

Example: see airport list